createdAt,value
2017-12-15T00:02:20.124Z,4.57
2017-12-15T00:04:47.524Z,4.22
2017-12-15T00:07:14.961Z,2.55
2017-12-15T00:09:42.382Z,4.53
2017-12-15T00:12:09.818Z,3.22
2017-12-15T00:14:38.012Z,3.20
2017-12-15T00:17:05.445Z,3.40
2017-12-15T00:19:32.876Z,6.12
2017-12-15T00:22:00.300Z,2.90
2017-12-15T00:24:27.738Z,4.12
2017-12-15T00:26:55.163Z,4.10
2017-12-15T00:29:23.360Z,2.97
2017-12-15T00:31:50.781Z,2.72
2017-12-15T00:34:18.208Z,2.58
2017-12-15T00:36:45.629Z,2.62
2017-12-15T00:39:13.072Z,4.50
2017-12-15T00:41:40.488Z,4.05
2017-12-15T00:44:07.922Z,2.35
2017-12-15T00:46:35.335Z,2.20
2017-12-15T00:49:02.771Z,3.25
2017-12-15T00:51:30.204Z,2.33
2017-12-15T00:53:57.633Z,4.70
2017-12-15T00:56:25.071Z,3.03
2017-12-15T00:58:52.493Z,2.20
2017-12-15T01:01:20.691Z,2.03
2017-12-15T01:03:48.112Z,1.50
2017-12-15T01:06:15.540Z,1.75
2017-12-15T01:08:42.965Z,1.80
2017-12-15T01:11:10.397Z,1.30
2017-12-15T01:13:37.816Z,1.75
2017-12-15T01:16:05.275Z,1.20
2017-12-15T01:18:32.667Z,1.37
2017-12-15T01:21:00.100Z,1.60
2017-12-15T01:23:27.529Z,2.20
2017-12-15T01:25:54.965Z,1.60
2017-12-15T01:28:22.390Z,1.50
2017-12-15T01:30:49.822Z,1.50
2017-12-15T01:33:17.243Z,2.10
2017-12-15T01:35:44.667Z,1.73
2017-12-15T01:38:12.100Z,1.50
2017-12-15T01:40:40.296Z,2.60
2017-12-15T01:43:07.715Z,3.62
2017-12-15T01:45:35.167Z,2.30
2017-12-15T01:48:02.571Z,1.48
2017-12-15T01:50:29.991Z,1.40
2017-12-15T01:52:57.425Z,1.95
2017-12-15T01:55:24.851Z,1.77
2017-12-15T01:57:52.275Z,2.20
2017-12-15T02:00:20.460Z,1.58
2017-12-15T02:02:47.897Z,2.12
2017-12-15T02:05:16.108Z,2.78
2017-12-15T02:07:43.536Z,1.62
2017-12-15T02:10:10.961Z,1.50
2017-12-15T02:12:38.404Z,1.65
2017-12-15T02:15:05.817Z,1.85
2017-12-15T02:17:33.252Z,2.47
2017-12-15T02:20:00.681Z,1.80
2017-12-15T02:22:28.123Z,2.05
2017-12-15T02:24:55.536Z,1.80
2017-12-15T02:27:22.994Z,1.90
2017-12-15T02:29:50.417Z,1.95
2017-12-15T02:32:17.836Z,2.05
2017-12-15T02:34:45.272Z,2.05
2017-12-15T02:37:12.696Z,2.22
2017-12-15T02:39:40.144Z,2.95
2017-12-15T02:42:07.573Z,2.03
2017-12-15T02:44:35.009Z,1.60
2017-12-15T02:47:02.490Z,2.50
2017-12-15T02:49:29.865Z,1.67
2017-12-15T02:51:57.290Z,1.70
2017-12-15T02:54:24.716Z,1.70
2017-12-15T02:56:52.144Z,2.30
2017-12-15T02:59:20.341Z,1.60
2017-12-15T03:01:47.759Z,1.60
2017-12-15T03:04:15.213Z,1.77
2017-12-15T03:06:42.644Z,2.47
2017-12-15T03:09:10.073Z,2.17
2017-12-15T03:11:37.506Z,2.15
2017-12-15T03:14:05.702Z,3.08
2017-12-15T03:16:33.137Z,1.90
2017-12-15T03:19:00.561Z,2.62
2017-12-15T03:21:27.997Z,2.53
2017-12-15T03:23:55.426Z,4.37
2017-12-15T03:26:22.860Z,1.98
2017-12-15T03:28:50.271Z,2.70
2017-12-15T03:31:17.709Z,2.78
2017-12-15T03:33:45.129Z,2.28
2017-12-15T03:36:12.556Z,1.90
2017-12-15T03:38:39.993Z,2.20
2017-12-15T03:41:08.945Z,5.62
2017-12-15T03:43:36.373Z,2.15
2017-12-15T03:46:03.795Z,2.25
2017-12-15T03:48:31.237Z,2.35
2017-12-15T03:50:58.661Z,1.92
2017-12-15T03:53:26.084Z,2.40
2017-12-15T03:55:54.280Z,2.00
2017-12-15T03:58:21.713Z,3.95
2017-12-15T04:00:49.139Z,2.20
2017-12-15T04:03:16.589Z,3.05
2017-12-15T04:05:44.009Z,2.30
2017-12-15T04:08:11.438Z,2.55
2017-12-15T04:10:39.624Z,3.55
2017-12-15T04:13:07.056Z,2.87
2017-12-15T04:15:34.475Z,2.15
2017-12-15T04:18:01.909Z,2.20
2017-12-15T04:20:29.332Z,2.40
2017-12-15T04:22:56.765Z,3.60
2017-12-15T04:25:24.185Z,3.00
2017-12-15T04:27:51.626Z,2.12
2017-12-15T04:30:19.045Z,7.30
2017-12-15T04:32:46.463Z,2.28
2017-12-15T04:35:13.890Z,4.18
2017-12-15T04:37:41.305Z,3.17
2017-12-15T04:40:08.739Z,3.47
2017-12-15T04:42:36.151Z,3.03
2017-12-15T04:45:03.588Z,1.80
2017-12-15T04:47:31.005Z,2.40
2017-12-15T04:49:58.439Z,2.62
2017-12-15T04:52:25.853Z,4.72
2017-12-15T04:54:53.280Z,3.30
2017-12-15T04:57:20.704Z,2.80
2017-12-15T04:59:48.132Z,3.15
2017-12-15T05:02:15.552Z,3.05
2017-12-15T05:04:42.989Z,1.87
2017-12-15T05:07:10.404Z,2.67
2017-12-15T05:09:37.828Z,2.00
2017-12-15T05:12:05.265Z,3.17
2017-12-15T05:14:32.684Z,2.83
2017-12-15T05:17:00.136Z,3.20
2017-12-15T05:19:27.558Z,2.80
2017-12-15T05:21:54.990Z,3.40
2017-12-15T05:24:22.421Z,2.45
2017-12-15T05:26:49.844Z,3.28
2017-12-15T05:29:17.269Z,3.40
2017-12-15T05:31:44.705Z,2.45
2017-12-15T05:34:12.124Z,2.60
2017-12-15T05:36:39.551Z,2.97
2017-12-15T05:39:07.745Z,5.03
2017-12-15T05:41:35.303Z,3.47
2017-12-15T05:44:02.709Z,2.40
2017-12-15T05:46:30.138Z,3.17
2017-12-15T05:48:57.552Z,2.62
2017-12-15T05:51:24.988Z,4.82
2017-12-15T05:53:52.413Z,2.95
2017-12-15T05:56:19.849Z,4.12
2017-12-15T05:58:47.269Z,3.70
2017-12-15T06:01:14.717Z,4.62
2017-12-15T06:03:42.144Z,5.90
2017-12-15T06:06:09.568Z,4.20
2017-12-15T06:08:37.001Z,4.03
2017-12-15T06:11:04.420Z,4.68
2017-12-15T06:13:32.620Z,4.95
2017-12-15T06:16:00.040Z,4.25
2017-12-15T06:18:27.482Z,6.60
2017-12-15T06:20:54.896Z,3.87
2017-12-15T06:23:22.499Z,3.08
2017-12-15T06:25:49.897Z,2.25
2017-12-15T06:28:17.329Z,2.50
2017-12-15T06:30:44.744Z,2.97
2017-12-15T06:33:12.176Z,4.00
2017-12-15T06:35:39.601Z,2.78
2017-12-15T06:38:07.057Z,3.22
2017-12-15T06:40:34.485Z,3.15
2017-12-15T06:43:01.908Z,3.15
2017-12-15T06:45:29.344Z,2.40
2017-12-15T06:47:56.855Z,2.67
2017-12-15T06:50:24.280Z,4.35
2017-12-15T06:52:51.713Z,2.50
2017-12-15T06:55:19.138Z,2.08
2017-12-15T06:57:46.576Z,4.12
2017-12-15T07:00:14.029Z,5.03
2017-12-15T07:02:41.436Z,3.37
2017-12-15T07:05:08.867Z,3.28
2017-12-15T07:07:36.289Z,3.15
2017-12-15T07:10:03.721Z,2.50
2017-12-15T07:12:31.131Z,2.22
2017-12-15T07:14:58.559Z,3.00
2017-12-15T07:17:25.980Z,3.35
2017-12-15T07:19:53.404Z,4.28
2017-12-15T07:22:21.652Z,2.75
2017-12-15T07:24:49.301Z,2.28
2017-12-15T07:27:16.724Z,3.33
2017-12-15T07:29:44.149Z,2.70
2017-12-15T07:32:11.583Z,2.50
2017-12-15T07:34:39.144Z,5.18
2017-12-15T07:37:06.579Z,2.40
2017-12-15T07:39:34.020Z,3.70
2017-12-15T07:42:01.513Z,4.30
2017-12-15T07:44:28.969Z,5.20
2017-12-15T07:46:56.405Z,3.12
2017-12-15T07:49:24.804Z,2.10
2017-12-15T07:51:52.232Z,3.92
2017-12-15T07:54:19.657Z,2.13
2017-12-15T07:56:48.093Z,3.60
2017-12-15T07:59:15.549Z,4.25
2017-12-15T08:01:42.999Z,3.40
2017-12-15T08:06:38.731Z,2.57
2017-12-15T08:09:06.292Z,3.90
2017-12-15T08:11:33.733Z,3.80
2017-12-15T08:14:01.157Z,3.83
2017-12-15T08:16:28.596Z,5.72
2017-12-15T08:18:56.033Z,5.53
2017-12-15T08:21:23.572Z,6.45
2017-12-15T08:23:51.032Z,2.70
2017-12-15T08:26:18.444Z,2.22
2017-12-15T08:28:45.867Z,4.62
2017-12-15T08:31:13.309Z,1.87
2017-12-15T08:33:40.857Z,2.00
2017-12-15T08:36:08.277Z,5.57
2017-12-15T08:38:35.777Z,1.95
2017-12-15T08:41:03.395Z,4.93
2017-12-15T08:43:30.993Z,4.62
2017-12-15T08:45:58.452Z,2.78
2017-12-15T08:48:25.908Z,3.15
2017-12-15T08:50:53.332Z,4.12
2017-12-15T08:53:20.764Z,2.87
2017-12-15T08:55:48.179Z,3.55
2017-12-15T08:58:15.608Z,2.95
2017-12-15T09:00:43.217Z,2.75
2017-12-15T09:03:10.952Z,4.78
2017-12-15T09:05:38.396Z,6.35
2017-12-15T09:08:05.860Z,8.90
2017-12-15T09:10:33.289Z,3.22
2017-12-15T09:13:00.951Z,6.32
2017-12-15T09:15:29.161Z,3.67
2017-12-15T09:17:56.580Z,5.10
2017-12-15T09:20:23.996Z,3.30
2017-12-15T09:22:51.533Z,2.80
2017-12-15T09:25:19.285Z,6.53
2017-12-15T09:27:46.737Z,2.20
2017-12-15T09:30:14.210Z,2.50
2017-12-15T09:32:41.580Z,2.42
2017-12-15T09:35:09.104Z,3.17
2017-12-15T09:37:36.517Z,4.25
2017-12-15T09:40:04.013Z,3.87
2017-12-15T09:42:31.469Z,5.10
2017-12-15T09:44:58.939Z,2.62
2017-12-15T09:47:26.382Z,2.60
2017-12-15T09:49:54.043Z,2.83
2017-12-15T09:52:21.467Z,3.50
2017-12-15T09:54:49.699Z,6.07
2017-12-15T09:57:17.133Z,2.92
2017-12-15T09:59:46.563Z,3.03
2017-12-15T10:02:15.311Z,5.90
2017-12-15T10:04:42.712Z,4.70
2017-12-15T10:07:10.149Z,2.05
2017-12-15T10:09:37.567Z,3.60
2017-12-15T10:12:04.987Z,3.65
2017-12-15T10:14:32.409Z,5.35
2017-12-15T10:16:59.850Z,3.15
2017-12-15T10:19:27.264Z,2.95
2017-12-15T10:21:54.688Z,2.60
2017-12-15T10:24:22.126Z,2.37
2017-12-15T10:26:49.549Z,4.35
2017-12-15T10:29:16.979Z,2.85
2017-12-15T10:31:45.173Z,2.80
2017-12-15T10:34:13.384Z,3.15
2017-12-15T10:36:40.803Z,3.53
2017-12-15T10:39:08.421Z,5.87
2017-12-15T10:41:35.953Z,2.00
2017-12-15T10:44:03.401Z,2.70
2017-12-15T10:46:30.838Z,2.10
2017-12-15T10:48:58.253Z,3.05
2017-12-15T10:51:25.776Z,2.37
2017-12-15T10:53:53.201Z,2.28
2017-12-15T10:56:20.628Z,2.00
2017-12-15T10:58:48.056Z,2.70
2017-12-15T11:01:15.554Z,1.67
2017-12-15T11:03:42.916Z,1.85
2017-12-15T11:06:11.127Z,3.37
2017-12-15T11:08:38.557Z,2.08
2017-12-15T11:11:05.997Z,1.60
2017-12-15T11:13:33.426Z,4.37
2017-12-15T11:16:01.828Z,1.70
2017-12-15T11:18:29.259Z,1.80
2017-12-15T11:20:56.802Z,2.60
2017-12-15T11:23:24.549Z,2.85
2017-12-15T11:25:51.977Z,1.80
2017-12-15T11:28:19.464Z,1.73
2017-12-15T11:30:47.096Z,1.80
2017-12-15T11:33:14.597Z,2.15
2017-12-15T11:35:42.050Z,1.60
2017-12-15T11:38:09.486Z,2.00
2017-12-15T11:40:37.032Z,1.92
2017-12-15T11:43:04.459Z,1.90
2017-12-15T11:45:31.884Z,1.70
2017-12-15T11:47:59.315Z,1.83
2017-12-15T11:50:26.929Z,2.00
2017-12-15T11:52:54.377Z,2.30
2017-12-15T11:55:22.100Z,2.20
2017-12-15T11:57:49.553Z,2.17
2017-12-15T12:00:16.983Z,2.03
2017-12-15T12:02:44.473Z,2.40
2017-12-15T12:05:11.909Z,2.03
2017-12-15T12:07:39.340Z,2.30
2017-12-15T12:10:06.777Z,2.00
2017-12-15T12:12:34.288Z,6.47
2017-12-15T12:15:01.728Z,2.10
2017-12-15T12:17:29.209Z,2.35
2017-12-15T12:19:56.984Z,2.10
2017-12-15T12:22:24.419Z,2.42
2017-12-15T12:24:51.874Z,1.83
2017-12-15T12:27:19.288Z,2.30
2017-12-15T12:29:46.728Z,1.60
2017-12-15T12:32:14.157Z,1.95
2017-12-15T12:34:41.645Z,2.72
2017-12-15T12:37:09.070Z,1.90
2017-12-15T12:39:36.504Z,2.65
2017-12-15T12:42:04.072Z,1.90
2017-12-15T12:44:31.505Z,1.87
2017-12-15T12:46:58.938Z,2.47
2017-12-15T12:49:26.448Z,5.72
2017-12-15T12:51:53.901Z,3.47
2017-12-15T12:54:21.528Z,1.95
2017-12-15T12:56:49.119Z,1.55
2017-12-15T12:59:16.563Z,2.00
2017-12-15T13:01:44.032Z,1.80
2017-12-15T13:04:11.499Z,4.55
2017-12-15T13:06:38.938Z,1.60
2017-12-15T13:09:06.362Z,2.22
2017-12-15T13:11:33.823Z,2.17
2017-12-15T13:14:01.336Z,2.72
2017-12-15T13:16:28.767Z,2.72
2017-12-15T13:18:56.532Z,2.12
2017-12-15T13:21:23.956Z,3.47
2017-12-15T13:23:51.379Z,3.70
2017-12-15T13:26:18.829Z,2.80
2017-12-15T13:28:47.317Z,2.70
2017-12-15T13:31:14.745Z,2.00
2017-12-15T13:33:42.843Z,4.10
2017-12-15T13:36:10.687Z,2.70
2017-12-15T13:38:38.120Z,2.33
2017-12-15T13:41:05.545Z,3.73
2017-12-15T13:43:33.781Z,2.80
2017-12-15T13:46:02.015Z,2.47
2017-12-15T13:48:29.599Z,4.37
2017-12-15T13:50:57.342Z,3.97
2017-12-15T13:53:24.816Z,2.40
2017-12-15T13:55:53.030Z,3.35
2017-12-15T13:58:20.539Z,6.75
2017-12-15T14:00:47.972Z,5.20
2017-12-15T14:03:15.656Z,4.90
2017-12-15T14:05:43.088Z,5.07
2017-12-15T14:08:10.522Z,5.35
2017-12-15T14:10:37.951Z,5.50
2017-12-15T14:13:05.381Z,9.77
2017-12-15T14:15:32.876Z,3.03
2017-12-15T14:18:00.296Z,3.67
2017-12-15T14:20:27.719Z,3.87
2017-12-15T14:22:55.236Z,4.82
2017-12-15T14:25:22.783Z,3.75
2017-12-15T14:27:50.732Z,5.35
2017-12-15T14:30:18.156Z,5.00
2017-12-15T14:32:45.745Z,7.10
2017-12-15T14:35:13.211Z,3.37
2017-12-15T14:37:40.648Z,10.52
2017-12-15T14:40:08.067Z,5.43
2017-12-15T14:42:35.516Z,4.22
2017-12-15T14:45:03.026Z,5.93
2017-12-15T14:47:30.493Z,4.75
2017-12-15T14:49:58.032Z,2.95
2017-12-15T14:52:25.603Z,5.82
2017-12-15T14:54:53.088Z,3.55
2017-12-15T14:57:20.532Z,2.80
2017-12-15T14:59:47.973Z,3.00
2017-12-15T15:02:15.443Z,4.20
2017-12-15T15:04:42.997Z,6.45
2017-12-15T15:07:10.633Z,4.72
2017-12-15T15:09:38.129Z,5.18
2017-12-15T15:12:05.570Z,5.18
2017-12-15T15:14:32.996Z,3.55
2017-12-15T15:17:00.590Z,24.95
2017-12-15T15:19:28.024Z,11.38
2017-12-15T15:21:55.498Z,7.05
2017-12-15T15:24:22.959Z,10.55
2017-12-15T15:26:50.572Z,7.45
2017-12-15T15:29:20.784Z,4.12
2017-12-15T15:31:48.973Z,5.55
2017-12-15T15:34:16.405Z,4.90
2017-12-15T15:36:43.833Z,6.25
2017-12-15T15:39:11.377Z,6.22
2017-12-15T15:41:38.804Z,5.30
2017-12-15T15:44:06.228Z,3.83
2017-12-15T15:46:33.747Z,5.07
2017-12-15T15:49:01.202Z,4.75
2017-12-15T15:51:28.628Z,4.05
2017-12-15T15:53:56.066Z,6.05
2017-12-15T15:56:23.503Z,4.97
2017-12-15T15:58:50.926Z,3.58
2017-12-15T16:01:18.365Z,3.87
2017-12-15T16:03:45.785Z,3.33
2017-12-15T16:06:13.979Z,4.53
2017-12-15T16:08:41.404Z,8.02
2017-12-15T16:11:08.845Z,5.75
2017-12-15T16:13:36.273Z,6.43
2017-12-15T16:16:03.756Z,3.80
2017-12-15T16:18:31.142Z,5.03
2017-12-15T16:20:59.359Z,7.80
2017-12-15T16:23:26.784Z,6.57
2017-12-15T16:25:54.270Z,8.90
2017-12-15T16:28:21.701Z,6.68
2017-12-15T16:30:49.180Z,11.20
2017-12-15T16:33:16.615Z,11.07
2017-12-15T16:35:44.044Z,6.75
2017-12-15T16:38:11.481Z,8.73
2017-12-15T16:40:38.905Z,9.43
2017-12-15T16:43:06.753Z,6.50
2017-12-15T16:45:34.168Z,8.18
2017-12-15T16:48:01.605Z,4.82
2017-12-15T16:50:29.135Z,6.60
2017-12-15T16:52:57.810Z,7.65
2017-12-15T16:55:25.280Z,5.22
2017-12-15T16:57:52.866Z,5.20
2017-12-15T17:00:20.295Z,6.12
2017-12-15T17:02:47.948Z,6.95
2017-12-15T17:05:15.360Z,5.97
2017-12-15T17:07:42.873Z,7.85
2017-12-15T17:10:10.295Z,9.88
2017-12-15T17:12:37.776Z,5.55
2017-12-15T17:15:05.195Z,7.70
2017-12-15T17:17:32.629Z,8.37
2017-12-15T17:20:00.057Z,13.33
2017-12-15T17:22:27.485Z,7.75
2017-12-15T17:24:54.910Z,7.35
2017-12-15T17:27:23.107Z,13.55
2017-12-15T17:29:50.542Z,16.45
2017-12-15T17:32:17.981Z,30.75
2017-12-15T17:34:45.409Z,32.47
2017-12-15T17:37:12.845Z,8.05
2017-12-15T17:39:40.264Z,7.65
2017-12-15T17:42:08.456Z,5.03
2017-12-15T17:44:35.887Z,8.57
2017-12-15T17:47:04.081Z,6.30
2017-12-15T17:49:31.533Z,8.15
2017-12-15T17:51:58.964Z,6.70
2017-12-15T17:54:26.402Z,5.82
2017-12-15T17:56:53.819Z,6.40
2017-12-15T17:59:21.261Z,6.62
2017-12-15T18:01:48.688Z,6.03
2017-12-15T18:04:16.129Z,5.75
2017-12-15T18:06:43.571Z,17.60
2017-12-15T18:09:11.014Z,12.10
2017-12-15T18:11:38.439Z,7.03
2017-12-15T18:14:05.864Z,6.07
2017-12-15T18:16:33.303Z,6.32
2017-12-15T18:19:00.719Z,8.95
2017-12-15T18:21:28.157Z,7.72
2017-12-15T18:23:55.596Z,10.02
2017-12-15T18:26:23.024Z,6.45
2017-12-15T18:28:50.458Z,10.05
2017-12-15T18:31:17.888Z,8.68
2017-12-15T18:33:45.322Z,9.05
2017-12-15T18:36:12.757Z,7.40
2017-12-15T18:38:40.178Z,8.43
2017-12-15T18:41:07.616Z,10.27
2017-12-15T18:43:35.040Z,6.90
2017-12-15T18:46:03.243Z,5.47
2017-12-15T18:48:30.669Z,8.35
2017-12-15T18:50:58.864Z,8.27
2017-12-15T18:53:26.301Z,10.35
2017-12-15T18:55:53.724Z,9.20
2017-12-15T18:58:21.158Z,7.97
2017-12-15T19:00:48.586Z,8.97
2017-12-15T19:03:16.024Z,20.35
2017-12-15T19:05:43.453Z,13.40
2017-12-15T19:08:10.885Z,9.40
2017-12-15T19:10:38.309Z,10.40
2017-12-15T19:15:34.255Z,10.20
2017-12-15T19:18:01.691Z,13.47
2017-12-15T19:20:29.124Z,13.82
2017-12-15T19:22:56.588Z,15.23
2017-12-15T19:25:24.021Z,12.60
2017-12-15T19:27:51.456Z,14.40
2017-12-15T19:30:18.909Z,14.30
2017-12-15T19:32:46.339Z,21.85
2017-12-15T19:35:13.773Z,16.65
2017-12-15T19:37:41.969Z,23.25
2017-12-15T19:40:09.427Z,14.60
2017-12-15T19:42:36.855Z,15.75
2017-12-15T19:45:04.288Z,14.90
2017-12-15T19:47:31.733Z,13.43
2017-12-15T19:49:59.180Z,13.52
2017-12-15T19:52:26.617Z,12.20
2017-12-15T19:54:54.068Z,13.55
2017-12-15T19:57:21.509Z,16.27
2017-12-15T19:59:49.759Z,16.23
2017-12-15T20:02:17.382Z,15.80
2017-12-15T20:04:44.792Z,15.77
2017-12-15T20:07:13.002Z,13.80
2017-12-15T20:09:40.423Z,12.00
2017-12-15T20:12:07.865Z,12.70
2017-12-15T20:14:35.300Z,14.30
2017-12-15T20:17:02.744Z,12.65
2017-12-15T20:19:30.187Z,14.52
2017-12-15T20:21:57.665Z,11.75
2017-12-15T20:24:25.083Z,14.75
2017-12-15T20:26:52.531Z,13.23
2017-12-15T20:29:20.734Z,17.33
2017-12-15T20:31:48.201Z,14.20
2017-12-15T20:34:15.640Z,11.53
2017-12-15T20:36:43.076Z,12.55
2017-12-15T20:39:10.500Z,12.80
2017-12-15T20:41:37.940Z,13.52
2017-12-15T20:44:05.382Z,14.73
2017-12-15T20:46:32.801Z,9.60
2017-12-15T20:49:00.246Z,10.43
2017-12-15T20:51:28.423Z,10.85
2017-12-15T20:53:55.853Z,10.00
2017-12-15T20:56:23.286Z,10.63
2017-12-15T20:58:51.035Z,12.68
2017-12-15T21:01:18.600Z,8.82
2017-12-15T21:03:46.105Z,11.23
2017-12-15T21:06:13.529Z,9.93
2017-12-15T21:08:40.965Z,8.65
2017-12-15T21:11:08.410Z,11.23
2017-12-15T21:13:35.875Z,11.20
2017-12-15T21:16:03.265Z,10.68
2017-12-15T21:18:31.463Z,12.20
2017-12-15T21:20:58.913Z,15.50
2017-12-15T21:23:26.336Z,9.65
2017-12-15T21:25:53.759Z,10.88
2017-12-15T21:28:21.188Z,12.52
2017-12-15T21:30:48.621Z,10.63
2017-12-15T21:33:16.053Z,12.25
2017-12-15T21:35:43.486Z,10.82
2017-12-15T21:38:10.913Z,13.77
2017-12-15T21:40:38.347Z,9.05
2017-12-15T21:43:06.535Z,9.47
2017-12-15T21:45:33.964Z,9.20
2017-12-15T21:48:01.397Z,9.50
2017-12-15T21:50:28.832Z,9.52
2017-12-15T21:52:56.354Z,10.97
2017-12-15T21:55:23.789Z,8.07
2017-12-15T21:57:51.224Z,9.73
2017-12-15T22:00:18.656Z,9.93
2017-12-15T22:02:46.221Z,9.88
2017-12-15T22:05:13.689Z,11.32
2017-12-15T22:07:41.117Z,11.95
2017-12-15T22:10:08.593Z,10.80
2017-12-15T22:12:36.039Z,8.73
2017-12-15T22:15:03.505Z,9.60
2017-12-15T22:17:30.961Z,11.25
2017-12-15T22:19:58.714Z,8.82
2017-12-15T22:22:26.182Z,11.85
2017-12-15T22:24:53.596Z,9.00
2017-12-15T22:27:21.082Z,8.80
2017-12-15T22:29:48.512Z,15.88
2017-12-15T22:32:16.005Z,11.90
2017-12-15T22:34:43.776Z,8.82
2017-12-15T22:37:11.210Z,11.70
2017-12-15T22:39:38.676Z,8.65
2017-12-15T22:42:06.136Z,12.75
2017-12-15T22:44:33.797Z,12.18
2017-12-15T22:47:01.217Z,12.43
2017-12-15T22:49:28.707Z,13.45
2017-12-15T22:51:56.152Z,11.68
2017-12-15T22:54:23.620Z,9.85
2017-12-15T22:56:51.095Z,8.35
2017-12-15T22:59:18.632Z,12.73
2017-12-15T23:01:46.070Z,15.87
2017-12-15T23:04:13.513Z,11.07
2017-12-15T23:06:41.009Z,13.30
2017-12-15T23:09:08.457Z,14.40
2017-12-15T23:11:35.918Z,13.40
2017-12-15T23:14:03.373Z,10.97
2017-12-15T23:16:30.833Z,16.25
2017-12-15T23:18:58.290Z,9.20
2017-12-15T23:21:26.044Z,9.40
2017-12-15T23:23:53.509Z,8.77
2017-12-15T23:26:21.146Z,8.13
2017-12-15T23:28:48.629Z,15.15
2017-12-15T23:31:16.064Z,8.15
2017-12-15T23:33:43.522Z,9.95
2017-12-15T23:36:11.100Z,12.37
2017-12-15T23:38:38.516Z,9.57
2017-12-15T23:41:06.004Z,8.90
2017-12-15T23:43:33.470Z,13.70
2017-12-15T23:46:00.900Z,10.68
2017-12-15T23:48:28.381Z,13.27
2017-12-15T23:50:55.830Z,8.88
2017-12-15T23:53:23.276Z,12.88
2017-12-15T23:56:02.469Z,8.82
2017-12-15T23:58:29.901Z,12.95
